Time;durP1;ratioP1;P1;durP2;ratioP2;P2;SDS_P1;SDS_P2;PMS_P1;PMS_P2;Temp;Humidity;BMP_temperature;BMP_pressure;BME280_temperature;BME280_humidity;BME280_pressure;Samples;Min_cycle;Max_cycle;Signal;HPM_P1;HPM_P2
2023/06/01 00:00:46;;;;;;;21.75;6.88;;;;;;;;;;5047603;28;20042;-81
2023/06/01 00:03:12;;;;;;;17.25;5.68;;;;;;;;;;5041364;28;20065;-81
2023/06/01 00:05:38;;;;;;;15.02;6.05;;;;;;;;;;5045261;28;20109;-81
2023/06/01 00:08:04;;;;;;;17.63;5.78;;;;;;;;;;5048880;28;20049;-81
2023/06/01 00:10:31;;;;;;;17.10;5.63;;;;;;;;;;5039627;28;20068;-81
2023/06/01 00:12:57;;;;;;;14.55;5.75;;;;;;;;;;5041887;28;20037;-81
2023/06/01 00:15:23;;;;;;;15.38;5.88;;;;;;;;;;5049806;28;20064;-80
2023/06/01 00:17:51;;;;;;;14.07;5.90;;;;;;;;;;5051164;28;20084;-80
2023/06/01 00:20:17;;;;;;;15.38;5.80;;;;;;;;;;5033031;28;20466;-80
2023/06/01 00:22:44;;;;;;;14.32;6.13;;;;;;;;;;5048670;28;20049;-81
2023/06/01 00:25:10;;;;;;;18.10;5.75;;;;;;;;;;5050746;28;20042;-80
2023/06/01 00:27:36;;;;;;;17.40;5.95;;;;;;;;;;5050688;28;20049;-79
2023/06/01 00:30:02;;;;;;;16.60;5.90;;;;;;;;;;5042377;28;20044;-80
2023/06/01 00:32:28;;;;;;;16.38;6.20;;;;;;;;;;5034211;28;20069;-79
2023/06/01 00:34:55;;;;;;;16.65;6.20;;;;;;;;;;5033337;28;20045;-81
2023/06/01 00:37:21;;;;;;;16.35;6.13;;;;;;;;;;5031856;28;20049;-81
2023/06/01 00:39:47;;;;;;;14.93;5.75;;;;;;;;;;5049723;28;20395;-80
2023/06/01 00:42:13;;;;;;;16.60;6.05;;;;;;;;;;5032723;28;20553;-82
2023/06/01 00:44:39;;;;;;;13.50;6.13;;;;;;;;;;5049276;28;20056;-82
2023/06/01 00:47:07;;;;;;;17.48;7.20;;;;;;;;;;5041726;28;20038;-80
2023/06/01 00:49:33;;;;;;;17.30;6.85;;;;;;;;;;5048163;28;20569;-81
2023/06/01 00:51:59;;;;;;;15.98;6.30;;;;;;;;;;5047709;28;20052;-81
2023/06/01 00:54:25;;;;;;;21.35;6.03;;;;;;;;;;5048494;28;20050;-81
2023/06/01 00:56:52;;;;;;;17.17;6.40;;;;;;;;;;5042903;28;20041;-81
2023/06/01 00:59:19;;;;;;;15.40;5.85;;;;;;;;;;5047764;28;20041;-82
2023/06/01 01:01:45;;;;;;;16.25;6.78;;;;;;;;;;5045445;28;20121;-80
2023/06/01 01:04:13;;;;;;;15.07;6.32;;;;;;;;;;5046436;28;20124;-80
2023/06/01 01:06:48;;;;;;;20.63;7.10;;;;;;;;;;5047114;28;20046;-81
2023/06/01 01:09:28;;;;;;;18.30;6.65;;;;;;;;;;5047079;28;20117;-81
2023/06/01 01:12:01;;;;;;;15.63;6.45;;;;;;;;;;5039016;28;20033;-81
2023/06/01 01:14:34;;;;;;;18.85;6.03;;;;;;;;;;5036409;28;20094;-80
2023/06/01 01:17:14;;;;;;;20.33;6.80;;;;;;;;;;5043473;28;20046;-81
2023/06/01 01:19:56;;;;;;;17.15;6.70;;;;;;;;;;5028397;28;20054;-81
2023/06/01 01:22:31;;;;;;;14.38;6.38;;;;;;;;;;5047871;28;20053;-80
2023/06/01 01:25:18;;;;;;;18.02;8.07;;;;;;;;;;5031745;28;20128;-80
2023/06/01 01:27:47;;;;;;;16.60;7.43;;;;;;;;;;5049490;28;20041;-80
2023/06/01 01:30:14;;;;;;;19.65;8.23;;;;;;;;;;5012197;28;20081;-80
2023/06/01 01:32:40;;;;;;;19.05;7.10;;;;;;;;;;5029488;28;20050;-80
2023/06/01 01:35:07;;;;;;;19.15;7.43;;;;;;;;;;5047877;28;20114;-81
2023/06/01 01:37:36;;;;;;;17.65;7.00;;;;;;;;;;5047108;28;20041;-81
2023/06/01 01:40:03;;;;;;;21.05;7.45;;;;;;;;;;5029942;28;20117;-82
2023/06/01 01:42:29;;;;;;;19.33;7.35;;;;;;;;;;5048752;28;20065;-81
2023/06/01 01:44:55;;;;;;;16.65;7.13;;;;;;;;;;5016188;28;20051;-81
2023/06/01 01:47:28;;;;;;;14.80;7.63;;;;;;;;;;5046306;28;20045;-82
2023/06/01 01:49:56;;;;;;;19.42;7.47;;;;;;;;;;5047513;28;20037;-81
2023/06/01 01:52:26;;;;;;;19.27;7.35;;;;;;;;;;5030627;28;20490;-81
2023/06/01 01:54:52;;;;;;;17.60;6.88;;;;;;;;;;5048438;28;20042;-81
2023/06/01 01:57:19;;;;;;;19.33;6.47;;;;;;;;;;5044073;28;20045;-81
2023/06/01 01:59:48;;;;;;;16.92;6.68;;;;;;;;;;5048222;28;20076;-81
2023/06/01 02:02:14;;;;;;;14.68;6.20;;;;;;;;;;5043232;28;20100;-81
2023/06/01 02:04:41;;;;;;;15.90;6.25;;;;;;;;;;5046349;28;20053;-82
2023/06/01 02:07:07;;;;;;;15.38;6.78;;;;;;;;;;5046391;28;20098;-81
2023/06/01 02:09:33;;;;;;;16.75;7.07;;;;;;;;;;5046990;28;20101;-82
2023/06/01 02:12:00;;;;;;;16.73;6.82;;;;;;;;;;5043823;28;20037;-81
2023/06/01 02:14:26;;;;;;;13.02;5.90;;;;;;;;;;5035825;28;20049;-81
2023/06/01 02:16:53;;;;;;;13.95;6.45;;;;;;;;;;5042531;28;20380;-81
2023/06/01 02:19:20;;;;;;;17.73;6.60;;;;;;;;;;5045581;28;20049;-80
2023/06/01 02:21:46;;;;;;;17.52;6.82;;;;;;;;;;5046608;28;20041;-80
2023/06/01 02:24:12;;;;;;;17.30;6.68;;;;;;;;;;5048971;28;20053;-80
2023/06/01 02:26:38;;;;;;;19.42;6.88;;;;;;;;;;5018192;28;20053;-80
2023/06/01 02:29:05;;;;;;;18.35;6.88;;;;;;;;;;5048487;28;20096;-81
2023/06/01 02:31:34;;;;;;;16.10;6.45;;;;;;;;;;5031263;28;21065;-81
2023/06/01 02:34:00;;;;;;;14.00;6.30;;;;;;;;;;5048271;28;20487;-81
2023/06/01 02:36:28;;;;;;;16.38;6.05;;;;;;;;;;5047670;28;20132;-81
2023/06/01 02:38:54;;;;;;;17.77;6.20;;;;;;;;;;5028486;28;20052;-81
2023/06/01 02:41:21;;;;;;;15.07;5.70;;;;;;;;;;5048119;28;20057;-81
2023/06/01 02:43:47;;;;;;;17.52;5.50;;;;;;;;;;5045662;28;20041;-81
2023/06/01 02:46:13;;;;;;;17.23;5.70;;;;;;;;;;5028037;28;20079;-80
2023/06/01 02:48:39;;;;;;;14.10;5.40;;;;;;;;;;5032285;28;20151;-80
2023/06/01 02:51:08;;;;;;;12.15;5.40;;;;;;;;;;5041006;28;20072;-81
2023/06/01 02:53:34;;;;;;;17.30;5.90;;;;;;;;;;5027130;28;20056;-80
2023/06/01 02:56:00;;;;;;;15.88;6.43;;;;;;;;;;5058362;28;20369;-81
2023/06/01 02:58:29;;;;;;;15.32;6.45;;;;;;;;;;5046107;28;20080;-80
2023/06/01 03:00:57;;;;;;;16.08;6.75;;;;;;;;;;5023875;28;20042;-80
2023/06/01 03:03:24;;;;;;;14.25;6.50;;;;;;;;;;5047935;28;20037;-80
2023/06/01 03:05:50;;;;;;;16.13;6.43;;;;;;;;;;5034206;28;20061;-80
2023/06/01 03:08:17;;;;;;;11.63;6.28;;;;;;;;;;5028437;28;20049;-80
2023/06/01 03:10:43;;;;;;;15.15;6.65;;;;;;;;;;5045621;28;20099;-79
2023/06/01 03:13:09;;;;;;;19.55;7.05;;;;;;;;;;5027133;28;20049;-80
2023/06/01 03:15:37;;;;;;;13.15;6.28;;;;;;;;;;5027405;28;20057;-81
2023/06/01 03:18:03;;;;;;;16.10;6.00;;;;;;;;;;5026190;28;20066;-81
2023/06/01 03:20:29;;;;;;;15.15;5.80;;;;;;;;;;5037531;28;20050;-82
2023/06/01 03:22:55;;;;;;;13.73;5.32;;;;;;;;;;5044059;28;20044;-81
2023/06/01 03:25:22;;;;;;;13.48;5.30;;;;;;;;;;5036967;28;20052;-81
2023/06/01 03:27:48;;;;;;;15.45;5.10;;;;;;;;;;5041567;28;20064;-81
2023/06/01 03:30:14;;;;;;;12.45;5.65;;;;;;;;;;5040301;28;20061;-82
2023/06/01 03:32:42;;;;;;;14.52;5.32;;;;;;;;;;5041469;28;20037;-81
2023/06/01 03:35:08;;;;;;;17.55;5.50;;;;;;;;;;5035144;28;20037;-80
2023/06/01 03:37:35;;;;;;;18.65;6.47;;;;;;;;;;5042499;28;20151;-81
2023/06/01 03:40:10;;;;;;;13.95;6.30;;;;;;;;;;5044018;28;20088;-81
2023/06/01 03:42:36;;;;;;;14.77;6.15;;;;;;;;;;5043968;28;20060;-81
2023/06/01 03:45:04;;;;;;;17.88;6.07;;;;;;;;;;5027132;28;20348;-82
2023/06/01 03:47:30;;;;;;;13.70;6.22;;;;;;;;;;5039085;28;20049;-81
2023/06/01 03:50:00;;;;;;;15.70;5.85;;;;;;;;;;5026511;28;20046;-81
2023/06/01 03:52:27;;;;;;;11.25;4.95;;;;;;;;;;5046074;28;20057;-82
2023/06/01 03:54:53;;;;;;;12.10;5.30;;;;;;;;;;5043782;28;20436;-81
2023/06/01 03:57:19;;;;;;;14.30;5.82;;;;;;;;;;5041557;28;20462;-81
2023/06/01 03:59:46;;;;;;;12.52;5.40;;;;;;;;;;5038513;28;20042;-81
2023/06/01 04:02:12;;;;;;;15.15;5.75;;;;;;;;;;5036818;28;20046;-82
2023/06/01 04:04:40;;;;;;;13.20;5.40;;;;;;;;;;5034022;28;20042;-81
2023/06/01 04:07:09;;;;;;;15.80;5.32;;;;;;;;;;5027710;28;20053;-81
2023/06/01 04:09:37;;;;;;;14.05;5.32;;;;;;;;;;5037736;28;20045;-81
2023/06/01 04:12:03;;;;;;;13.98;5.32;;;;;;;;;;5044551;28;20046;-81
2023/06/01 04:14:30;;;;;;;17.23;6.22;;;;;;;;;;5032096;28;20045;-81
2023/06/01 04:16:56;;;;;;;13.15;5.43;;;;;;;;;;5051228;28;20120;-81
2023/06/01 04:19:22;;;;;;;10.98;5.72;;;;;;;;;;5048807;28;20041;-81
2023/06/01 04:21:49;;;;;;;13.32;5.38;;;;;;;;;;5045683;28;20045;-81
2023/06/01 04:24:15;;;;;;;11.90;4.45;;;;;;;;;;5045511;28;20050;-80
2023/06/01 04:26:42;;;;;;;13.30;4.55;;;;;;;;;;5041891;28;20629;-81
2023/06/01 04:29:11;;;;;;;14.32;4.82;;;;;;;;;;5045468;28;20391;-80
2023/06/01 04:31:38;;;;;;;12.23;4.47;;;;;;;;;;5043913;28;20057;-80
2023/06/01 04:34:05;;;;;;;9.07;4.38;;;;;;;;;;5011039;28;20060;-80
2023/06/01 04:36:38;;;;;;;12.00;4.00;;;;;;;;;;5046069;28;20049;-81
2023/06/01 04:39:06;;;;;;;11.77;4.82;;;;;;;;;;5047684;28;20045;-81
2023/06/01 04:41:32;;;;;;;13.55;4.85;;;;;;;;;;5048162;28;20057;-81
2023/06/01 04:43:58;;;;;;;14.35;5.30;;;;;;;;;;5045523;28;20168;-80
2023/06/01 04:46:26;;;;;;;13.63;5.22;;;;;;;;;;5045108;28;20042;-81
2023/06/01 04:48:59;;;;;;;10.93;4.90;;;;;;;;;;5049561;28;20057;-80
2023/06/01 04:51:26;;;;;;;14.55;4.43;;;;;;;;;;5030520;28;20033;-82
2023/06/01 04:53:53;;;;;;;9.32;4.43;;;;;;;;;;5020483;28;20046;-81
2023/06/01 04:56:20;;;;;;;12.25;4.68;;;;;;;;;;5046345;28;20034;-82
2023/06/01 04:58:50;;;;;;;13.07;5.18;;;;;;;;;;5044424;28;20053;-81
2023/06/01 05:01:17;;;;;;;13.82;5.20;;;;;;;;;;5043869;28;20110;-81
2023/06/01 05:03:44;;;;;;;16.33;6.32;;;;;;;;;;5042288;28;20192;-81
2023/06/01 05:06:11;;;;;;;14.32;4.88;;;;;;;;;;5043866;28;20514;-81
2023/06/01 05:08:38;;;;;;;13.98;5.05;;;;;;;;;;5044857;28;20129;-81
2023/06/01 05:11:04;;;;;;;11.05;5.45;;;;;;;;;;5045663;28;20042;-82
2023/06/01 05:13:36;;;;;;;13.38;5.30;;;;;;;;;;5042753;28;20045;-81
2023/06/01 05:16:03;;;;;;;14.00;5.70;;;;;;;;;;5026336;28;20052;-80
2023/06/01 05:18:30;;;;;;;12.15;5.53;;;;;;;;;;5044510;28;20045;-81
2023/06/01 05:20:56;;;;;;;13.93;5.47;;;;;;;;;;5045223;28;20041;-81
2023/06/01 05:23:22;;;;;;;15.43;5.60;;;;;;;;;;5025324;28;20069;-81
2023/06/01 05:25:48;;;;;;;15.98;5.50;;;;;;;;;;5042885;28;20044;-82
2023/06/01 05:28:15;;;;;;;13.00;5.47;;;;;;;;;;5042962;28;20037;-82
2023/06/01 05:30:41;;;;;;;14.45;5.30;;;;;;;;;;5045498;28;20053;-82
2023/06/01 05:33:07;;;;;;;16.05;5.85;;;;;;;;;;5046335;28;20046;-82
2023/06/01 05:35:33;;;;;;;13.38;5.88;;;;;;;;;;5047484;28;20058;-82
2023/06/01 05:37:59;;;;;;;11.50;5.68;;;;;;;;;;5047903;28;20099;-81
2023/06/01 05:40:25;;;;;;;18.75;6.45;;;;;;;;;;5046344;28;20058;-81
2023/06/01 05:42:52;;;;;;;14.63;6.30;;;;;;;;;;5047961;28;20137;-81
2023/06/01 05:45:18;;;;;;;13.60;6.15;;;;;;;;;;5056450;28;20098;-82
2023/06/01 05:47:44;;;;;;;16.50;6.65;;;;;;;;;;5045626;28;20065;-81
2023/06/01 05:50:11;;;;;;;14.48;6.20;;;;;;;;;;5043051;28;20086;-82
2023/06/01 05:52:37;;;;;;;17.88;5.78;;;;;;;;;;5026903;28;20049;-79
2023/06/01 05:55:03;;;;;;;12.43;5.85;;;;;;;;;;5043523;28;20116;-81
2023/06/01 05:57:29;;;;;;;11.15;5.50;;;;;;;;;;5027186;28;20144;-82
2023/06/01 05:59:56;;;;;;;14.57;5.80;;;;;;;;;;5046799;28;20049;-81
2023/06/01 06:02:22;;;;;;;12.27;5.50;;;;;;;;;;5050163;28;20573;-81
2023/06/01 06:04:48;;;;;;;12.57;4.90;;;;;;;;;;5041956;28;20061;-81
2023/06/01 06:07:14;;;;;;;12.77;4.95;;;;;;;;;;5039022;28;20042;-82
2023/06/01 06:09:41;;;;;;;14.52;5.28;;;;;;;;;;5042831;28;20403;-82
2023/06/01 06:12:07;;;;;;;12.55;4.80;;;;;;;;;;5005911;28;20077;-84
2023/06/01 06:14:33;;;;;;;10.20;5.13;;;;;;;;;;5020785;28;20041;-84
2023/06/01 06:17:00;;;;;;;9.85;4.45;;;;;;;;;;5043186;28;20048;-84
2023/06/01 06:19:26;;;;;;;11.35;4.30;;;;;;;;;;5026280;28;20045;-84
2023/06/01 06:21:52;;;;;;;13.10;4.50;;;;;;;;;;5044849;28;20049;-82
2023/06/01 06:24:18;;;;;;;9.25;3.45;;;;;;;;;;5037242;28;20387;-83
2023/06/01 06:26:44;;;;;;;10.45;3.50;;;;;;;;;;5039198;28;20442;-83
2023/06/01 06:29:10;;;;;;;6.43;3.03;;;;;;;;;;5039725;28;20123;-84
2023/06/01 06:31:36;;;;;;;7.35;3.38;;;;;;;;;;5042289;28;20045;-82
2023/06/01 06:34:02;;;;;;;9.48;3.42;;;;;;;;;;5043364;28;20416;-83
2023/06/01 06:36:29;;;;;;;8.48;3.30;;;;;;;;;;5043895;28;20041;-83
2023/06/01 06:38:55;;;;;;;9.90;3.63;;;;;;;;;;5044861;28;20124;-82
2023/06/01 06:41:21;;;;;;;6.40;3.13;;;;;;;;;;5042726;28;20053;-82
2023/06/01 06:43:47;;;;;;;7.95;3.00;;;;;;;;;;5045520;28;20046;-82
2023/06/01 06:46:13;;;;;;;12.77;4.32;;;;;;;;;;5026196;28;20041;-82
2023/06/01 06:48:41;;;;;;;9.48;4.20;;;;;;;;;;5032714;28;20049;-83
2023/06/01 06:51:07;;;;;;;8.65;4.15;;;;;;;;;;5041187;28;20046;-82
2023/06/01 06:53:33;;;;;;;10.48;4.72;;;;;;;;;;5043991;28;20049;-82
2023/06/01 06:56:00;;;;;;;12.75;5.25;;;;;;;;;;5043142;28;20056;-82
2023/06/01 06:58:26;;;;;;;12.70;5.03;;;;;;;;;;5042523;28;20049;-82
2023/06/01 07:00:52;;;;;;;13.55;5.30;;;;;;;;;;5044030;28;20060;-82
2023/06/01 07:03:18;;;;;;;11.52;5.10;;;;;;;;;;5043381;28;20052;-82
2023/06/01 07:05:47;;;;;;;11.75;5.05;;;;;;;;;;5044167;28;20056;-82
2023/06/01 07:08:14;;;;;;;10.23;4.25;;;;;;;;;;5044241;28;20049;-83
2023/06/01 07:10:40;;;;;;;9.70;4.50;;;;;;;;;;5043867;28;20051;-83
2023/06/01 07:13:06;;;;;;;11.02;4.38;;;;;;;;;;5040600;28;20555;-83
2023/06/01 07:15:32;;;;;;;9.05;4.05;;;;;;;;;;5041097;28;20124;-83
2023/06/01 07:17:58;;;;;;;9.43;3.72;;;;;;;;;;5036034;28;20045;-83
2023/06/01 07:20:25;;;;;;;8.55;4.13;;;;;;;;;;5039650;28;20403;-83
2023/06/01 07:22:51;;;;;;;9.90;3.95;;;;;;;;;;5042325;28;20041;-82
2023/06/01 07:27:50;;;;;;;6.85;2.70;;;;;;;;;;5040493;28;20107;-87
2023/06/01 07:30:16;;;;;;;7.82;2.90;;;;;;;;;;5042957;28;20068;-88
2023/06/01 07:32:43;;;;;;;7.15;2.50;;;;;;;;;;5045552;28;20059;-88
2023/06/01 07:35:09;;;;;;;6.97;2.67;;;;;;;;;;5046218;28;20034;-88
2023/06/01 07:37:35;;;;;;;5.32;2.63;;;;;;;;;;5027695;28;20116;-89
2023/06/01 07:40:13;;;;;;;7.50;2.42;;;;;;;;;;5029375;28;20092;-89
2023/06/01 07:42:41;;;;;;;7.25;2.70;;;;;;;;;;5028565;28;20045;-89
2023/06/01 07:45:10;;;;;;;;;;;;;;;;;;5028809;28;20037;-89
2023/06/01 07:47:37;;;;;;;5.43;2.22;;;;;;;;;;5045570;28;20221;-88
2023/06/01 07:50:06;;;;;;;5.97;2.10;;;;;;;;;;5046167;28;20038;-88
2023/06/01 07:52:32;;;;;;;4.95;1.83;;;;;;;;;;5012509;28;20376;-90
2023/06/01 07:54:58;;;;;;;5.03;1.60;;;;;;;;;;5028049;28;20188;-88
2023/06/01 07:57:30;;;;;;;3.88;1.30;;;;;;;;;;5052245;28;20044;-89
2023/06/01 08:00:11;;;;;;;4.07;1.30;;;;;;;;;;5025222;28;20057;-89
2023/06/01 08:02:38;;;;;;;3.72;1.02;;;;;;;;;;5028091;28;20042;-89
2023/06/01 08:05:06;;;;;;;4.35;1.60;;;;;;;;;;5031005;28;20384;-89
2023/06/01 08:07:35;;;;;;;4.88;1.58;;;;;;;;;;5028700;28;20466;-89
2023/06/01 08:10:11;;;;;;;4.35;1.80;;;;;;;;;;5031399;28;20064;-89
2023/06/01 08:12:39;;;;;;;4.55;1.60;;;;;;;;;;5026027;28;20072;-90
2023/06/01 08:15:06;;;;;;;4.28;1.45;;;;;;;;;;5025663;28;20368;-89
2023/06/01 08:17:35;;;;;;;3.53;1.42;;;;;;;;;;5024391;28;20053;-89
2023/06/01 08:20:20;;;;;;;6.03;1.52;;;;;;;;;;5010038;28;20070;-89
2023/06/01 08:22:50;;;;;;;6.50;1.67;;;;;;;;;;5041705;28;20045;-90
2023/06/01 08:25:20;;;;;;;5.65;1.98;;;;;;;;;;5048595;28;20046;-88
2023/06/01 08:27:49;;;;;;;3.58;1.73;;;;;;;;;;4980543;28;20061;-88
2023/06/01 08:30:23;;;;;;;4.95;1.98;;;;;;;;;;4998626;28;20058;-89
2023/06/01 08:32:57;;;;;;;5.35;2.00;;;;;;;;;;5020026;28;20065;-88
2023/06/01 08:35:25;;;;;;;4.75;1.95;;;;;;;;;;5001012;28;20029;-89
2023/06/01 08:38:00;;;;;;;5.90;2.28;;;;;;;;;;5009462;28;20066;-89
2023/06/01 08:40:27;;;;;;;6.53;2.25;;;;;;;;;;4986906;28;20057;-87
2023/06/01 08:43:00;;;;;;;6.38;2.40;;;;;;;;;;4990545;28;20124;-87
2023/06/01 08:45:29;;;;;;;5.88;2.50;;;;;;;;;;5011119;28;20070;-89
2023/06/01 08:47:55;;;;;;;7.45;3.00;;;;;;;;;;4991759;28;20042;-86
2023/06/01 08:50:37;;;;;;;7.30;3.13;;;;;;;;;;5000757;28;20054;-87
2023/06/01 08:53:13;;;;;;;5.43;2.50;;;;;;;;;;4984609;28;20042;-88
2023/06/01 08:55:42;;;;;;;7.60;3.17;;;;;;;;;;4988273;28;20046;-89
2023/06/01 09:00:58;;;;;;;6.15;2.70;;;;;;;;;;4986198;28;20136;-88
2023/06/01 09:03:29;;;;;;;7.00;2.88;;;;;;;;;;4997214;28;20105;-90
2023/06/01 09:05:58;;;;;;;9.48;3.08;;;;;;;;;;4990763;28;20054;-87
2023/06/01 09:08:26;;;;;;;;;;;;;;;;;;5007374;28;20046;-88
2023/06/01 09:10:55;;;;;;;6.97;2.50;;;;;;;;;;5005703;28;19928;-88
2023/06/01 09:13:37;;;;;;;10.00;3.03;;;;;;;;;;4975775;28;20120;-87
2023/06/01 09:16:05;;;;;;;8.88;2.72;;;;;;;;;;4969329;28;20046;-87
2023/06/01 09:18:32;;;;;;;6.75;3.03;;;;;;;;;;4989509;28;21324;-88
2023/06/01 09:21:16;;;;;;;7.43;3.10;;;;;;;;;;5004819;28;20050;-86
2023/06/01 09:23:43;;;;;;;7.63;2.92;;;;;;;;;;5003008;28;20065;-88
2023/06/01 09:26:09;;;;;;;10.63;3.22;;;;;;;;;;4988947;28;20089;-89
2023/06/01 09:28:54;;;;;;;6.75;2.85;;;;;;;;;;4987014;28;20121;-89
2023/06/01 09:31:44;;;;;;;8.70;2.83;;;;;;;;;;4973640;28;20057;-89
2023/06/01 09:34:20;;;;;;;6.50;2.97;;;;;;;;;;5003876;28;20052;-88
2023/06/01 09:36:50;;;;;;;8.15;2.72;;;;;;;;;;5007433;28;20046;-89
2023/06/01 09:39:17;;;;;;;7.93;3.10;;;;;;;;;;5007992;28;20037;-89
2023/06/01 09:41:53;;;;;;;6.18;3.10;;;;;;;;;;4992479;28;20050;-89
2023/06/01 09:44:40;;;;;;;10.93;3.70;;;;;;;;;;4976138;28;20039;-89
2023/06/01 09:47:09;;;;;;;6.88;3.30;;;;;;;;;;4990659;28;20055;-89
2023/06/01 09:49:45;;;;;;;7.32;3.10;;;;;;;;;;5006425;28;20107;-88
2023/06/01 09:52:14;;;;;;;6.43;2.75;;;;;;;;;;4994823;28;20042;-88
2023/06/01 09:54:43;;;;;;;5.90;2.40;;;;;;;;;;4995413;28;20085;-89
2023/06/01 09:57:23;;;;;;;6.72;2.47;;;;;;;;;;5006046;28;20058;-89
2023/06/01 09:59:51;;;;;;;9.65;2.90;;;;;;;;;;5000894;28;20058;-89
2023/06/01 10:02:31;;;;;;;7.35;3.10;;;;;;;;;;4983228;28;20458;-89
2023/06/01 10:05:13;;;;;;;8.65;3.33;;;;;;;;;;5007935;28;20045;-88
2023/06/01 10:07:57;;;;;;;8.85;3.20;;;;;;;;;;5007775;28;20062;-88
2023/06/01 10:10:54;;;;;;;8.13;3.03;;;;;;;;;;5000395;28;20046;-88
2023/06/01 10:13:17;;;;;;;11.60;3.65;;;;;;;;;;4989661;28;20054;-88
2023/06/01 10:16:15;;;;;;;8.80;3.45;;;;;;;;;;4987712;28;20050;-88
2023/06/01 10:19:10;;;;;;;11.32;3.67;;;;;;;;;;4984686;28;20046;-90
2023/06/01 10:21:44;;;;;;;11.38;3.75;;;;;;;;;;5009024;28;20102;-91
2023/06/01 10:24:13;;;;;;;12.30;3.80;;;;;;;;;;4993075;28;20053;-89
2023/06/01 10:30:01;;;;;;;11.52;3.70;;;;;;;;;;5022847;28;20109;-89
2023/06/01 10:32:54;;;;;;;12.77;4.05;;;;;;;;;;5004460;28;20061;-89
2023/06/01 10:35:33;;;;;;;13.30;3.88;;;;;;;;;;5022650;28;20034;-89
2023/06/01 10:38:09;;;;;;;15.30;3.95;;;;;;;;;;5029314;28;20050;-89
2023/06/01 10:40:39;;;;;;;12.35;3.95;;;;;;;;;;5032633;28;20041;-88
2023/06/01 10:43:08;;;;;;;12.32;3.83;;;;;;;;;;5029903;28;20096;-90
2023/06/01 10:45:41;;;;;;;15.30;3.70;;;;;;;;;;5031845;28;20022;-90
2023/06/01 10:48:15;;;;;;;16.65;3.95;;;;;;;;;;5015250;28;20081;-89
2023/06/01 10:50:42;;;;;;;17.40;4.25;;;;;;;;;;5017989;28;20088;-88
2023/06/01 10:53:30;;;;;;;12.90;3.40;;;;;;;;;;5014943;28;20049;-89
2023/06/01 10:56:18;;;;;;;14.98;3.15;;;;;;;;;;5023582;28;20050;-89
2023/06/01 10:58:44;;;;;;;10.68;3.58;;;;;;;;;;5032805;28;20041;-90
2023/06/01 11:01:21;;;;;;;15.68;4.20;;;;;;;;;;5032393;28;20101;-91
2023/06/01 11:03:50;;;;;;;11.45;2.92;;;;;;;;;;5030100;28;20053;-90
2023/06/01 11:06:46;;;;;;;12.93;3.33;;;;;;;;;;5018373;28;20057;-90
2023/06/01 11:09:15;;;;;;;12.10;3.22;;;;;;;;;;5022032;28;20069;-89
2023/06/01 11:12:00;;;;;;;;;;;;;;;;;;;;;
2023/06/01 11:14:30;;;;;;;11.65;3.25;;;;;;;;;;5029129;28;20124;-89
2023/06/01 11:16:58;;;;;;;9.98;3.33;;;;;;;;;;5029128;28;20125;-89
2023/06/01 11:19:24;;;;;;;11.50;3.30;;;;;;;;;;5027808;28;20089;-89
2023/06/01 11:22:01;;;;;;;12.50;3.28;;;;;;;;;;5012308;28;20075;-88
2023/06/01 11:24:33;;;;;;;12.15;3.78;;;;;;;;;;5028175;28;20106;-89
2023/06/01 11:27:04;;;;;;;13.60;3.63;;;;;;;;;;5027392;28;20431;-88
2023/06/01 11:29:31;;;;;;;11.52;3.35;;;;;;;;;;5029720;28;20061;-89
2023/06/01 11:32:03;;;;;;;8.07;3.17;;;;;;;;;;5026875;28;20049;-89
2023/06/01 11:34:38;;;;;;;10.65;3.42;;;;;;;;;;4991810;28;20045;-90
2023/06/01 11:37:07;;;;;;;10.15;3.28;;;;;;;;;;5009197;28;20069;-89
2023/06/01 11:39:34;;;;;;;12.55;3.33;;;;;;;;;;5029122;28;20053;-89
2023/06/01 11:42:12;;;;;;;9.38;3.20;;;;;;;;;;4991322;28;20053;-89
2023/06/01 11:44:46;;;;;;;12.25;3.15;;;;;;;;;;4982362;28;20054;-90
2023/06/01 11:47:13;;;;;;;9.88;3.05;;;;;;;;;;5005057;28;20050;-90
2023/06/01 11:49:48;;;;;;;8.57;2.67;;;;;;;;;;5003235;28;20042;-91
2023/06/01 11:52:14;;;;;;;11.57;3.00;;;;;;;;;;5012141;28;20057;-89
2023/06/01 11:54:43;;;;;;;13.48;3.35;;;;;;;;;;5012619;28;20046;-90
2023/06/01 11:57:10;;;;;;;9.40;3.03;;;;;;;;;;5013059;28;20022;-89
2023/06/01 11:59:40;;;;;;;9.50;3.20;;;;;;;;;;5011661;28;20049;-88
2023/06/01 12:02:27;;;;;;;9.65;3.10;;;;;;;;;;5031133;28;20049;-89
2023/06/01 12:05:06;;;;;;;9.05;3.08;;;;;;;;;;5029184;28;20050;-89
2023/06/01 12:07:33;;;;;;;14.68;3.47;;;;;;;;;;4996376;28;20060;-90
2023/06/01 12:10:01;;;;;;;13.35;3.30;;;;;;;;;;4996744;28;20161;-90
2023/06/01 12:12:33;;;;;;;16.70;3.85;;;;;;;;;;5022995;28;20050;-90
2023/06/01 12:14:59;;;;;;;11.73;3.15;;;;;;;;;;5011679;28;20043;-89
2023/06/01 12:17:53;;;;;;;12.40;3.42;;;;;;;;;;5020434;28;20034;-89
2023/06/01 12:20:31;;;;;;;10.27;3.05;;;;;;;;;;5029281;28;20065;-90
2023/06/01 12:22:58;;;;;;;15.30;3.80;;;;;;;;;;5030631;28;20050;-90
2023/06/01 12:25:25;;;;;;;11.68;3.40;;;;;;;;;;5008503;28;20095;-91
2023/06/01 12:28:04;;;;;;;11.52;3.22;;;;;;;;;;5022698;28;20532;-90
2023/06/01 12:30:31;;;;;;;10.93;2.92;;;;;;;;;;5032062;28;20106;-89
2023/06/01 12:32:57;;;;;;;11.60;3.45;;;;;;;;;;5029964;28;20038;-89
2023/06/01 12:35:23;;;;;;;10.02;3.00;;;;;;;;;;5027706;28;20050;-91
2023/06/01 12:38:03;;;;;;;14.88;3.20;;;;;;;;;;5029825;28;20046;-90
2023/06/01 12:40:29;;;;;;;9.52;3.22;;;;;;;;;;5030619;28;20046;-91
2023/06/01 12:42:55;;;;;;;10.07;2.83;;;;;;;;;;5013431;28;20065;-90
2023/06/01 12:45:21;;;;;;;9.68;2.63;;;;;;;;;;5029899;28;20058;-92
2023/06/01 12:47:47;;;;;;;9.18;2.42;;;;;;;;;;5030803;28;20042;-90
2023/06/01 12:50:14;;;;;;;10.60;2.97;;;;;;;;;;5031153;28;20093;-90
2023/06/01 12:52:44;;;;;;;14.70;3.47;;;;;;;;;;5029941;28;20082;-91
2023/06/01 12:55:10;;;;;;;8.90;3.30;;;;;;;;;;5031032;28;20050;-90
2023/06/01 12:57:40;;;;;;;9.38;3.13;;;;;;;;;;5031460;28;20038;-91
2023/06/01 13:00:07;;;;;;;12.48;3.15;;;;;;;;;;5014464;28;20054;-90
2023/06/01 13:02:34;;;;;;;10.30;2.83;;;;;;;;;;5034930;28;20034;-89
2023/06/01 13:05:01;;;;;;;12.82;3.13;;;;;;;;;;5024659;28;20137;-90
2023/06/01 13:07:27;;;;;;;8.85;2.88;;;;;;;;;;5034454;28;20045;-90
2023/06/01 13:09:53;;;;;;;7.63;2.97;;;;;;;;;;5021433;28;20034;-91
2023/06/01 13:12:19;;;;;;;8.93;2.78;;;;;;;;;;5024377;28;20042;-91
2023/06/01 13:14:46;;;;;;;11.13;3.05;;;;;;;;;;5030904;28;20106;-91
2023/06/01 13:17:12;;;;;;;8.73;2.88;;;;;;;;;;5015244;28;20125;-91
2023/06/01 13:19:38;;;;;;;8.23;2.78;;;;;;;;;;5032901;28;20049;-91
2023/06/01 13:22:04;;;;;;;9.77;2.83;;;;;;;;;;5030037;28;20042;-91
2023/06/01 13:24:33;;;;;;;10.85;3.00;;;;;;;;;;5032341;28;20048;-92
2023/06/01 13:26:59;;;;;;;11.40;3.10;;;;;;;;;;5030745;28;20060;-91
2023/06/01 13:29:26;;;;;;;8.63;3.10;;;;;;;;;;5028463;28;20085;-91
2023/06/01 13:31:52;;;;;;;10.77;3.38;;;;;;;;;;5028562;28;20045;-91
2023/06/01 13:34:20;;;;;;;11.15;3.30;;;;;;;;;;5012191;28;20042;-91
2023/06/01 13:36:47;;;;;;;11.25;3.03;;;;;;;;;;5029800;28;20177;-93
2023/06/01 13:39:14;;;;;;;13.07;3.30;;;;;;;;;;5029298;28;20072;-92
2023/06/01 13:41:40;;;;;;;14.15;3.15;;;;;;;;;;5029487;28;20042;-92
2023/06/01 13:44:06;;;;;;;9.73;3.38;;;;;;;;;;5013809;28;20049;-92
2023/06/01 13:46:33;;;;;;;9.80;3.03;;;;;;;;;;5016345;28;20064;-90
2023/06/01 13:48:59;;;;;;;11.25;3.58;;;;;;;;;;5035910;28;20045;-90
2023/06/01 13:51:25;;;;;;;11.63;3.90;;;;;;;;;;5034238;28;20098;-91
2023/06/01 13:53:51;;;;;;;10.93;3.22;;;;;;;;;;5031345;28;20081;-90
2023/06/01 13:56:17;;;;;;;15.20;3.67;;;;;;;;;;5029649;28;20037;-91
2023/06/01 13:58:43;;;;;;;11.50;3.10;;;;;;;;;;5029090;28;20117;-91
2023/06/01 14:01:10;;;;;;;7.78;2.78;;;;;;;;;;5027862;28;20135;-91
2023/06/01 14:03:36;;;;;;;10.05;3.00;;;;;;;;;;5027679;28;20049;-90
2023/06/01 14:06:02;;;;;;;11.35;3.38;;;;;;;;;;5027916;28;20049;-90
2023/06/01 14:08:28;;;;;;;10.52;3.08;;;;;;;;;;5027324;28;20038;-91
2023/06/01 14:10:54;;;;;;;12.75;3.65;;;;;;;;;;5016073;28;20066;-91
2023/06/01 14:13:20;;;;;;;9.07;3.40;;;;;;;;;;5025826;28;20046;-91
2023/06/01 14:15:46;;;;;;;11.10;2.97;;;;;;;;;;5026079;28;21659;-92
2023/06/01 14:18:12;;;;;;;14.07;4.32;;;;;;;;;;5018625;28;20065;-91
2023/06/01 14:20:39;;;;;;;14.32;3.65;;;;;;;;;;5028346;28;20073;-91
2023/06/01 14:23:07;;;;;;;13.50;3.20;;;;;;;;;;5027764;28;20050;-90
2023/06/01 14:25:33;;;;;;;10.77;3.00;;;;;;;;;;5020299;28;20046;-91
2023/06/01 14:28:01;;;;;;;10.82;3.00;;;;;;;;;;5032110;28;20038;-91
2023/06/01 14:30:27;;;;;;;12.20;3.63;;;;;;;;;;5016522;28;20112;-91
2023/06/01 14:32:54;;;;;;;12.43;3.22;;;;;;;;;;5015167;28;20053;-90
2023/06/01 14:35:20;;;;;;;11.55;3.60;;;;;;;;;;4996014;28;20096;-92
2023/06/01 14:37:46;;;;;;;11.02;3.10;;;;;;;;;;5008471;28;20072;-91
2023/06/01 14:40:12;;;;;;;7.78;2.97;;;;;;;;;;4994761;28;20046;-90
2023/06/01 14:42:40;;;;;;;11.90;3.30;;;;;;;;;;5010496;28;20480;-90
2023/06/01 14:45:06;;;;;;;11.02;3.13;;;;;;;;;;4984991;28;20050;-89
2023/06/01 14:47:32;;;;;;;9.45;2.67;;;;;;;;;;5011479;28;20057;-91
2023/06/01 14:49:59;;;;;;;9.95;2.97;;;;;;;;;;4992112;28;20049;-90
2023/06/01 14:52:25;;;;;;;10.40;2.80;;;;;;;;;;4974227;28;20046;-91
2023/06/01 14:54:51;;;;;;;11.00;3.00;;;;;;;;;;4978453;28;20103;-92